Latest Coastal Weather Observations for Townsville

IDQ60701

Issued at 10:51 am EST Tuesday 17 January 2017 (issued every 10 minutes, with the page automatically refreshed every 10 minutes)

About coastal observations | Map of coastal stations | Coastal observations for QLD | Marine services | Other Formats
Station Details ID: 032040 Name: TOWNSVILLE AERO Lat: -19.25 Lon: 146.77 Height: 4.34 m
Data from the previous 72 hours. | See also: Recent months at Townsville
Date/Time
EST
Temp
°C
Wind Pressure Rain since
9am
mm
Weather Cloud Vis
km
Sea
Height
m
Swell
Dir  Spd
kts
Gust
kts
hPa Trend Height
m
Period
s
Dir
17/10:30am 29.8 ENE 9 12 1013.4 - 0.0 - Mostly clear 10 - - - -
17/10:00am 29.9 ENE 7 9 1013.6 - 0.0 - Mostly clear 10 - - - -
17/09:30am 28.8 NE 7 9 1013.6 - 0.0 - Mostly clear 10 - - - -
17/09:00am 28.4 NE 6 9 1013.6 R 4.6 - Cloudy 10 - - - -
17/08:30am 27.9 E 5 7 1013.2 - 4.6 - Mostly clear 10 - - - -
17/08:00am 28.2 ESE 6 8 1013.2 - 4.6 - Mostly clear 10 - - - -
17/07:30am 27.6 ESE 5 7 1013.0 - 4.6 Showers Mostly clear 10 - - - -
17/07:00am 26.4 ESE 4 6 1012.8 - 4.6 - Mostly clear 10 - - - -
17/06:30am 26.0 SSE 5 6 1012.2 - 4.6 - Mostly clear 10 - - - -
17/06:00am 25.4 SE 7 8 1011.8 R 4.6 - Mostly clear 10 - - - -
17/05:30am 25.5 SSE 4 5 1011.7 - 4.6 - Partly cloudy 10 - - - -
17/05:00am 25.6 S 5 7 1011.1 - 4.6 - - 10 - - - -
17/04:30am 25.6 SSE 6 7 1010.8 - 4.6 - Partly cloudy 10 - - - -
17/04:00am 25.7 S 6 6 1010.8 - 4.6 - Partly cloudy 10 - - - -
17/03:30am 25.6 E 4 5 1010.7 - 4.6 - - 10 - - - -
17/03:00am 25.7 NNE 5 7 1010.7 R 4.6 - Partly cloudy 10 - - - -
17/02:49am 25.8 NE 7 9 1010.6 - 4.6 - Partly cloudy 10 - - - -
17/02:32am 26.1 ENE 9 13 1010.8 - 4.6 - Partly cloudy 10 - - - -
17/02:30am 26.3 ENE 8 13 1010.8 - 4.6 - Partly cloudy 10 - - - -
17/02:00am 26.0 NE 6 7 1010.8 - 4.6 - Partly cloudy 10 - - - -
17/01:30am 26.0 CALM 0 3 1011.0 - 4.6 - Partly cloudy 10 - - - -
17/01:09am 25.8 CALM 0 3 1011.0 - 4.6 - Partly cloudy 10 - - - -
17/01:00am 25.8 E 4 5 1011.1 - 4.6 - Partly cloudy 10 - - - -
17/12:57am 25.7 ESE 5 5 1011.1 - 4.6 - Partly cloudy 10 - - - -
17/12:34am 25.9 ENE 2 5 1011.2 - 2.8 - Partly cloudy 10 - - - -
17/12:30am 25.8 ENE 1 5 1011.2 - 2.8 - Partly cloudy 10 - - - -
17/12:14am 26.3 WNW 3 6 1011.5 - 2.2 - Partly cloudy 10 - - - -
17/12:00am 26.5 WSW 1 5 1011.4 F 1.4 Rain Cloudy 7 - - - -
 
Date/Time
EST
Temp
°C
Wind Pressure Rain since
9am
mm
Weather Cloud Vis
km
Sea
Height
m
Swell
Dir  Spd
kts
Gust
kts
hPa Trend Height
m
Period
s
Dir
16/11:30pm 26.6 N 4 6 1011.8 - 0.8 - Partly cloudy 10 - - - -
16/11:00pm 26.5 E 3 4 1012.0 - 0.8 - Partly cloudy 10 - - - -
16/10:30pm 26.2 NNE 4 5 1012.1 - 0.8 - Partly cloudy 10 - - - -
16/10:00pm 25.9 N 6 8 1012.1 - 0.8 - Partly cloudy 10 - - - -
16/09:30pm 25.8 NNE 12 16 1011.7 - 0.8 - Partly cloudy 10 - - - -
16/09:00pm 27.8 ENE 14 20 1011.4 R 0.2 Showers Cloudy 10 - - - -
16/08:30pm 28.1 E 12 15 1011.0 - 0.2 - Partly cloudy 10 - - - -
16/08:00pm 28.3 ENE 13 16 1010.6 - 0.2 - Partly cloudy 10 - - - -
16/07:30pm 28.3 ENE 12 16 1010.4 - 0.2 - Partly cloudy 10 - - - -
16/07:00pm 28.4 ENE 12 17 1010.0 - 0.2 - Partly cloudy 10 - - - -
16/06:30pm 28.8 ENE 11 15 1009.5 - 0.2 - Partly cloudy 10 - - - -
16/06:00pm 29.0 ENE 12 16 1009.1 R 0.2 - - 10 - - - -
16/05:30pm 29.3 ENE 13 16 1008.8 - 0.2 - Mostly clear 10 - - - -
16/05:00pm 29.4 ENE 13 16 1008.4 - 0.2 - Mostly clear 10 - - - -
16/04:30pm 29.8 ENE 13 16 1008.3 - 0.2 - Mostly clear 10 - - - -
16/04:00pm 29.8 ENE 14 17 1008.4 - 0.2 - Mostly clear 10 - - - -
16/03:30pm 29.8 ENE 13 16 1008.5 - 0.2 - Mostly clear 10 - - - -
16/03:00pm 29.4 ENE 15 18 1008.7 R 0.2 - Mostly cloudy 10 - - - -
16/02:30pm 29.8 ENE 15 19 1008.7 - 0.2 - Mostly clear 10 - - - -
16/02:00pm 29.9 ENE 11 15 1008.7 - 0.2 - Mostly clear 10 - - - -
16/01:30pm 29.5 ENE 10 14 1008.5 - 0.2 - Mostly clear 10 - - - -
16/01:00pm 29.5 ENE 10 14 1008.7 - 0.2 - Mostly clear 10 - - - -
16/12:30pm 29.5 ENE 13 17 1009.3 - 0.2 - Mostly clear 10 - - - -
16/12:00pm 29.8 NNE 8 12 1009.4 F 0.2 - Partly cloudy 10 - - - -
16/11:30am 29.3 ENE 7 10 1009.4 - 0.2 - Mostly clear 10 - - - -
16/11:00am 29.1 ENE 5 8 1009.6 - 0.2 - Mostly clear 10 - - - -
16/10:30am 28.6 ENE 6 9 1009.8 - 0.0 - Partly cloudy 10 - - - -
16/10:00am 28.0 ESE 8 12 1009.9 - 0.0 - Mostly clear 10 - - - -
16/09:30am 27.6 ESE 7 9 1010.0 - 0.0 - Mostly clear 10 - - - -
16/09:00am 26.9 SE 6 8 1010.3 R 31.4 - Cloudy 10 - - - -
16/08:30am 26.4 SSE 9 13 1009.8 - 31.4 - Mostly clear 10 - - - -
16/08:00am 25.7 SE 8 10 1009.8 - 31.4 - Mostly clear 10 - - - -
16/07:30am 25.4 ESE 5 7 1009.5 - 31.4 - Mostly clear 10 - - - -
16/07:00am 25.2 SE 6 8 1009.0 - 31.4 - Mostly clear 10 - - - -
16/06:30am 24.6 SE 5 7 1008.5 - 31.4 - Mostly clear 10 - - - -
16/06:00am 24.6 ESE 6 7 1008.4 F 31.4 Drizzle Partly cloudy 10 - - - -
16/05:30am 24.4 SE 6 7 1008.2 - 31.4 - Partly cloudy 10 - - - -
16/05:00am 24.4 SSE 5 6 1007.9 - 31.4 - Partly cloudy 10 - - - -
16/04:52am 24.4 S 4 5 1007.6 - 31.4 - Partly cloudy 10 - - - -
16/04:30am 24.4 S 5 7 1007.5 - 31.4 - Partly cloudy 10 - - - -
16/04:00am 24.5 SSW 5 6 1007.6 - 31.4 - Partly cloudy 10 - - - -
16/03:35am 24.3 WSW 8 9 1007.3 - 31.0 - Partly cloudy 9 - - - -
16/03:30am 24.3 WSW 7 9 1007.3 - 30.8 - Partly cloudy 7 - - - -
16/03:15am 24.5 SSW 5 6 1007.7 - 29.6 - Partly cloudy 6 - - - -
16/03:12am 24.5 S 5 6 1007.8 - 29.4 - Partly cloudy 7 - - - -
16/03:08am 24.6 S 5 6 1007.9 - 29.0 - Partly cloudy 7 - - - -
16/03:00am 24.7 S 5 6 1008.0 R 28.2 Rain Cloudy 7 - - - -
16/02:57am 24.7 SSW 5 7 1008.0 - 28.0 - Partly cloudy 6 - - - -
16/02:48am 24.7 SSW 5 7 1008.0 - 27.2 - Partly cloudy 8 - - - -
16/02:34am 24.8 WSW 5 7 1008.0 - 26.4 - Partly cloudy 4 - - - -
16/02:30am 24.7 S 3 7 1008.0 - 26.2 - Partly cloudy 4 - - - -
16/02:25am 24.7 E 4 7 1008.1 - 25.0 - Partly cloudy 6 - - - -
16/02:16am 24.7 E 7 8 1008.1 - 24.2 - Partly cloudy 10 - - - -
16/02:00am 24.7 E 8 9 1008.3 - 23.2 - Partly cloudy 10 - - - -
16/01:54am 25.0 E 7 9 1008.4 - 23.2 - Partly cloudy 10 - - - -
16/01:52am 25.1 ENE 7 9 1008.3 - 23.2 - Partly cloudy 7 - - - -
16/01:37am 25.2 E 4 7 1008.0 - 21.8 - Partly cloudy 6 - - - -
16/01:30am 25.0 S 2 4 1008.3 - 21.2 - Partly cloudy 9 - - - -
16/01:00am 24.7 WNW 8 13 1008.3 - 20.6 - Partly cloudy 10 - - - -
16/12:59am 24.6 WNW 9 13 1008.3 - 20.6 - Partly cloudy 10 - - - -
16/12:55am 24.7 W 9 13 1008.1 - 20.6 - Partly cloudy 9 - - - -
16/12:32am 25.1 NW 11 21 1008.1 - 19.0 - Partly cloudy 6 - - - -
16/12:30am 25.3 WNW 9 19 1008.1 - 18.4 - Partly cloudy 10 - - - -
16/12:07am 26.5 SW 1 5 1008.2 - 17.8 - Partly cloudy 10 - - - -
16/12:05am 26.5 WSW 2 6 1008.2 - 17.8 - Partly cloudy 10 - - - -
16/12:00am 26.4 W 3 6 1008.3 S 17.6 Showers Cloudy 10 - - - -
 
Date/Time
EST
Temp
°C
Wind Pressure Rain since
9am
mm
Weather Cloud Vis
km
Sea
Height
m
Swell
Dir  Spd
kts
Gust
kts
hPa Trend Height
m
Period
s
Dir
15/11:54pm 26.6 WNW 2 5 1008.4 - 17.6 - Partly cloudy 10 - - - -
15/11:30pm 26.7 NNW 1 5 1008.7 - 17.6 - Partly cloudy 10 - - - -
15/11:00pm 27.0 NNW 5 7 1008.9 - 17.6 - Partly cloudy 10 - - - -
15/10:58pm 26.9 N 5 7 1008.9 - 17.6 - Partly cloudy 10 - - - -
15/10:30pm 26.5 CALM 0 0 1008.7 - 17.6 - Partly cloudy 10 - - - -
15/10:23pm 26.5 CALM 0 0 1008.7 - 17.4 - Partly cloudy 10 - - - -
15/10:00pm 26.8 NNE 1 3 1008.7 - 17.2 - Cloudy 10 - - - -
15/09:30pm 26.8 CALM 0 0 1008.4 - 17.2 - Cloudy 10 - - - -
15/09:00pm 26.4 CALM 0 0 1008.0 F 17.2 - Cloudy 10 - - - -
15/08:30pm 26.6 N 2 4 1007.6 - 17.2 - - 10 - - - -
15/08:00pm 26.5 N 2 4 1007.5 - 17.2 - - 10 - - - -
15/07:30pm 26.4 NNW 5 7 1007.4 - 17.2 - - 10 - - - -
15/07:00pm 26.6 NNW 6 8 1007.2 - 17.2 - - 10 - - - -
15/06:45pm 26.6 N 5 7 1007.3 - 17.2 - Partly cloudy 10 - - - -
15/06:30pm 26.7 N 6 7 1007.1 - 17.2 - Partly cloudy 10 - - - -
15/06:00pm 26.8 NNW 7 9 1006.7 F 17.2 - Cloudy 10 - - - -
15/05:30pm 26.9 NNE 5 6 1006.2 - 17.2 - Partly cloudy 10 - - - -
15/05:20pm 26.9 N 5 6 1006.1 - 17.2 - Partly cloudy 10 - - - -
15/05:00pm 26.7 NNW 4 6 1006.2 - 17.2 - Partly cloudy 10 - - - -
15/04:30pm 26.9 N 1 4 1005.9 - 17.2 - Cloudy 10 - - - -
15/04:00pm 26.4 SSW 5 7 1006.1 - 17.2 - Cloudy 10 - - - -
15/03:30pm 25.7 SSW 7 9 1006.9 - 17.2 - Cloudy 10 - - - -
15/03:00pm 25.7 WNW 4 5 1007.6 R 17.2 Showers Cloudy 10 - - - -
15/02:30pm 25.4 NW 4 6 1008.4 - 16.8 - Partly cloudy 10 - - - -
15/02:09pm 25.3 NNE 7 9 1008.5 - 16.4 - Partly cloudy 9 - - - -
15/02:00pm 25.3 NNE 8 10 1008.7 - 16.2 - Partly cloudy 7 - - - -
15/01:39pm 25.0 NW 7 9 1008.9 - 13.2 - Partly cloudy 6 - - - -
15/01:30pm 25.1 WNW 9 11 1008.8 - 12.0 - Partly cloudy 9 - - - -
15/01:00pm 25.5 WNW 13 16 1008.9 - 11.2 - Partly cloudy 10 - - - -
15/12:30pm 28.4 ENE 8 12 1008.7 - 11.2 - - 10 - - - -
15/12:00pm 28.0 ENE 9 13 1008.8 F 11.2 Recent precip. Mostly clear 10 - - - -
15/11:30am 27.8 E 6 8 1008.7 - 11.0 - Mostly clear 10 - - - -
15/11:00am 26.3 ENE 8 10 1009.0 - 11.0 - Mostly clear 10 - - - -
15/10:30am 25.2 NNE 10 12 1009.4 - 11.0 - Mostly clear 8 - - - -
15/10:00am 24.4 NNE 11 14 1009.9 - 9.8 - Mostly clear 7 - - - -
15/09:41am 24.5 N 7 9 1010.2 - 3.8 Showers Mostly clear 1 - - - -
15/09:30am 24.6 N 9 16 1010.0 - 2.2 Showers Mostly clear 3 - - - -
15/09:17am 25.4 N 10 15 1009.7 - 1.0 Showers Mostly clear 3 - - - -
15/09:10am 25.8 NNE 8 12 1009.8 - 0.2 Showers Mostly clear 6 - - - -
15/09:00am 26.4 NE 7 8 1009.9 R 6.2 Rain Cloudy 10 - - - -
15/08:30am 26.0 ENE 5 6 1009.6 - 6.2 - Mostly clear 9 - - - -
15/08:16am 26.0 NNE 6 8 1009.7 - 6.2 Showers Mostly clear 6 - - - -
15/08:00am 26.3 NE 5 6 1009.7 - 5.4 - Mostly clear 10 - - - -
15/07:30am 25.9 N 7 10 1009.4 - 5.4 - Mostly clear 9 - - - -
15/07:19am 25.7 N 8 11 1009.4 - 5.4 - Mostly clear 8 - - - -
15/07:00am 25.4 NNE 7 13 1009.3 - 5.4 - Mostly clear 7 - - - -
15/06:55am 25.6 NE 5 8 1009.2 - 5.4 - Mostly clear 6 - - - -
15/06:30am 25.6 SE 2 4 1008.9 - 5.4 - Mostly clear 9 - - - -
15/06:00am 25.4 S 5 6 1008.5 R 5.4 Showers Cloudy 6 - - - -
15/05:30am 25.4 S 4 5 1008.5 - 5.0 - Partly cloudy 10 - - - -
15/05:00am 25.2 CALM 0 0 1008.0 - 5.0 - Partly cloudy 10 - - - -
15/04:30am 25.0 SSE 5 5 1007.4 - 5.0 - Partly cloudy 10 - - - -
15/04:00am 25.0 SSW 3 4 1007.1 - 5.0 - Partly cloudy 10 - - - -
15/03:30am 25.1 NW 3 5 1006.8 - 5.0 - Partly cloudy 10 - - - -
15/03:00am 25.1 WSW 5 6 1007.3 F 4.2 Showers Cloudy 8 - - - -
15/02:30am 25.6 WSW 9 13 1007.8 - 2.8 - Cloudy 10 - - - -
15/02:00am 25.8 WNW 7 9 1008.0 - 2.8 - Partly cloudy 10 - - - -
15/01:30am 25.9 W 7 10 1008.4 - 2.8 - Partly cloudy 10 - - - -
15/01:00am 26.0 NW 7 8 1008.6 - 2.8 - Partly cloudy 10 - - - -
15/12:31am 25.8 W 5 5 1008.9 - 2.6 - Partly cloudy 10 - - - -
15/12:30am 25.8 W 5 5 1008.9 - 2.6 - Partly cloudy 10 - - - -
15/12:00am 25.9 NNW 4 4 1009.2 R 2.6 Showers Cloudy 10 - - - -
 
Date/Time
EST
Temp
°C
Wind Pressure Rain since
9am
mm
Weather Cloud Vis
km
Sea
Height
m
Swell
Dir  Spd
kts
Gust
kts
hPa Trend Height
m
Period
s
Dir
14/11:55pm 26.0 NNW 4 5 1009.2 - 2.6 - Partly cloudy 10 - - - -
14/11:30pm 26.0 CALM 0 3 1009.5 - 2.6 - Cloudy 10 - - - -
14/11:00pm 26.0 WSW 4 5 1009.6 - 2.6 - Cloudy 10 - - - -
14/10:30pm 25.9 W 4 5 1009.6 - 2.6 - - 10 - - - -
14/10:00pm 25.9 WNW 5 6 1009.7 - 2.6 - Partly cloudy 10 - - - -
14/09:30pm 25.6 NW 5 5 1009.2 - 2.6 - - 10 - - - -
14/09:00pm 25.6 NW 4 5 1008.6 F 2.6 - Cloudy 10 - - - -
14/08:30pm 25.8 CALM 0 0 1008.5 - 2.6 - - 10 - - - -
14/08:00pm 25.6 CALM 0 0 1008.4 - 2.6 - - 10 - - - -
14/07:30pm 25.5 CALM 0 0 1008.5 - 2.6 - - 10 - - - -
14/07:00pm 25.5 SE 4 5 1009.0 - 2.6 - - 10 - - - -
14/06:30pm 25.5 SE 5 7 1008.5 - 2.6 - - 10 - - - -
14/06:00pm 25.3 E 5 7 1008.2 F 2.6 Rain Cloudy 10 - - - -
14/05:31pm 25.6 SE 11 14 1008.5 - 2.6 - Partly cloudy 10 - - - -
14/05:30pm 25.6 SE 11 15 1008.5 - 2.6 - Partly cloudy 10 - - - -
14/05:00pm 25.9 SSE 10 13 1008.8 - 2.6 - Partly cloudy 10 - - - -
14/04:38pm 25.8 SE 10 13 1008.4 - 2.4 - Partly cloudy 10 - - - -
14/04:30pm 25.9 SSE 10 12 1008.4 - 2.4 - Partly cloudy 10 - - - -
14/04:00pm 26.7 SSW 5 6 1008.1 - 2.2 - Partly cloudy 10 - - - -
14/03:30pm 26.8 S 7 9 1008.2 - 2.2 - Partly cloudy 10 - - - -
14/03:20pm 27.0 S 5 7 1008.4 - 2.2 - Partly cloudy 10 - - - -
14/03:00pm 27.1 SSW 7 9 1008.8 R 1.4 Rain Mostly cloudy 10 - - - -
14/02:30pm 27.4 WSW 5 7 1008.9 - 1.2 - Partly cloudy 10 - - - -
14/02:01pm 27.8 E 7 10 1009.0 - 0.4 - Partly cloudy 10 - - - -
14/02:00pm 28.0 E 6 10 1009.0 - 0.4 - Partly cloudy 10 - - - -
14/01:30pm 29.5 N 7 8 1009.2 - 0.0 - Cloudy 10 - - - -
14/01:25pm 29.5 N 6 8 1009.1 - 0.0 - Cloudy 10 - - - -
14/01:00pm 30.0 N 11 14 1008.1 - 0.0 - Partly cloudy 10 - - - -
14/12:30pm 31.2 NNW 10 16 1008.5 - 0.0 - Partly cloudy 10 - - - -
14/12:00pm 31.6 NNE 7 12 1009.3 R 0.0 - Cloudy 10 - - - -
14/11:30am 31.1 NE 8 10 1009.6 - 0.0 - Mostly clear 10 - - - -
14/11:00am 30.7 NE 8 11 1009.4 - 0.0 - Mostly clear 10 - - - -

Other Formats:

Comma delimited format used in spreadsheet applications
http://www.bom.gov.au/fwo/IDQ60701/IDQ60701.94294.axf

JavaScript Object Notation format (JSON) in row-major order
http://www.bom.gov.au/fwo/IDQ60701/IDQ60701.94294.json